Flight Track Log - Related Links

Times and Time Zones

All times are in EDT time to prevent confusion due to time zone crossing. See the FLG3729 flight status page for this flight to view local times or setup timezone preferences in your user account.

Time Position Orientation Groundspeed Altitude Reporting Facility
EDT Latitude Longitude Course Direction KTS MPH feet Rate Location/Type
Wed 06:02:25 AM 42.7694 -73.8089 334° Northwest 163 188 1,300  Level Boston Center
Wed 06:03:26 AM 42.8086 -73.8353 334° Northwest 180 207 3,200 2,098 Climbing Boston Center
Wed 06:04:28 AM 42.8519 -73.8817 322° Northwest 197 227 5,600 2,311 Climbing Boston Center
Wed 06:05:28 AM 42.8967 -73.9564 309° West 221 254 7,900 2,600 Climbing Boston Center
Wed 06:06:28 AM 42.9353 -74.0425 302° West 254 292 10,800 2,136 Climbing Boston Center
Wed 06:07:26 AM 42.9797 -74.1400 302° West 286 329 12,100 1,500 Climbing Boston Center
Wed 06:08:28 AM 43.0072 -74.2486 289° West 306 352 13,800 1,488 Climbing Boston Center
Wed 06:09:27 AM 43.0197 -74.3769 278° West 330 380 15,100 1,450 Climbing Boston Center
Wed 06:10:28 AM 43.0300 -74.5022 276° West 338 389 16,700 1,500 Climbing Boston Center
Wed 06:11:27 AM 43.0400 -74.6275 276° West 338 389 18,100 1,438 Climbing Boston Center
Wed 06:12:29 AM 43.0522 -74.7472 278° West 343 395 19,600 1,475 Climbing Boston Center
Wed 06:13:29 AM 43.0600 -74.8756 275° West 348 400 21,100 1,550 Climbing Boston Center
Wed 06:14:29 AM 43.0717 -75.0125 277° West 348 400 22,700 1,525 Climbing Boston Center
Wed 06:15:27 AM 43.0814 -75.1350 276° West 338 389 24,100 1,200 Climbing Boston Center
Wed 06:16:29 AM 43.0908 -75.2550 276° West 333 383 25,100 992 Climbing Boston Center
Wed 06:17:28 AM 43.1003 -75.3778 276° West 333 383 26,100 1,000 Climbing Boston Center
Wed 06:18:29 AM 43.1117 -75.4978 277° West 333 383 27,100 908 Climbing Boston Center
Wed 06:19:27 AM 43.1189 -75.6175 275° West 333 383 27,900 458 Climbing Boston Center
Wed 06:20:27 AM 43.1278 -75.7433 276° West 333 383 28,000 50 Climbing Boston Center
Wed 06:21:27 AM 43.1364 -75.8747 275° West 333 383 28,000 -29 Level Boston Center
Wed 06:23:55 AM 43.1586 -76.1969 276° West 367 422 27,900  Descending Cleveland Center
Wed 06:24:55 AM 43.1492 -76.3314 265° West 362 417 28,000 50 Climbing Cleveland Center
Wed 06:25:55 AM 43.1394 -76.4658 264° West 367 422 28,000  Level Cleveland Center
Wed 06:26:55 AM 43.1272 -76.5975 263° West 367 422 28,000  Level Cleveland Center
Wed 06:27:55 AM 43.1150 -76.7292 263° West 362 417 28,000  Level Cleveland Center
Wed 06:28:55 AM 43.1028 -76.8636 263° West 357 411 28,000  Level Cleveland Center
Wed 06:29:55 AM 43.0903 -76.9953 263° West 357 411 28,000  Level Cleveland Center
Wed 06:30:55 AM 43.0797 -77.1294 264° West 357 411 28,000  Level Cleveland Center
Wed 06:31:55 AM 43.0672 -77.2667 263° West 357 411 28,000  Level Cleveland Center
Wed 06:32:55 AM 43.0542 -77.4008 262° West 357 411 28,000  Level Cleveland Center
Wed 06:33:55 AM 43.0411 -77.5378 263° West 362 417 28,000  Level Cleveland Center
Wed 06:34:55 AM 43.0283 -77.6806 263° West 373 429 28,000  Level Cleveland Center
Wed 06:35:55 AM 43.0150 -77.8203 263° West 373 429 28,000  Level Cleveland Center
Wed 06:36:55 AM 42.9994 -77.9631 262° West 373 429 28,000  Level Cleveland Center
Wed 06:37:55 AM 42.9861 -78.1083 263° West 378 435 28,000  Level Cleveland Center
Wed 06:38:55 AM 42.9472 -78.2461 249° West 378 435 28,000  Level Cleveland Center
Wed 06:39:55 AM 42.8914 -78.3756 240° Southwest 388 447 28,000  Level Cleveland Center
Wed 06:40:55 AM 42.8586 -78.5156 252° West 393 452 28,000  Level Cleveland Center
Wed 06:41:55 AM 42.8528 -78.6631 267° West 386 444 28,000  Level Cleveland Center
Wed 06:42:55 AM 42.8447 -78.8133 266° West 399 459 28,000  Level Cleveland Center
Wed 06:43:55 AM 42.8367 -78.9694 266° West 410 472 28,000  Level Cleveland Center
Wed 06:44:55 AM 42.8281 -79.1111 265° West 416 479 28,000  Level Cleveland Center
Wed 06:45:55 AM 42.8217 -79.2669 267° West 422 486 28,000  Level Cleveland Center
Wed 06:46:55 AM 42.8089 -79.4511 265° West 422 486 28,000  Level Cleveland Center
Wed 06:47:55 AM 42.8000 -79.6097 266° West 422 486 28,000  Level Cleveland Center
Wed 06:48:55 AM 42.7908 -79.7683 266° West 422 486 28,000  Level Cleveland Center
Wed 06:49:55 AM 42.7772 -79.9269 263° West 427 491 28,000  Level Cleveland Center
Wed 06:50:55 AM 42.7614 -80.0883 262° West 427 491 28,000  Level Cleveland Center
Wed 06:51:55 AM 42.7514 -80.2525 265° West 427 491 28,000  Level Cleveland Center
Wed 06:52:55 AM 42.7414 -80.4136 265° West 427 491 28,000 -50 Level Cleveland Center
Wed 06:53:55 AM 42.7311 -80.5775 265° West 427 491 27,900 -550 Descending Cleveland Center
Wed 06:54:55 AM 42.7186 -80.7414 264° West 433 498 26,900 -1,000 Descending Cleveland Center
Wed 06:55:55 AM 42.7058 -80.8911 263° West 424 488 25,900 -1,150 Descending Cleveland Center
Wed 06:56:55 AM 42.6906 -81.0464 262° West 419 482 24,600 -950 Descending Cleveland Center
Wed 06:57:55 AM 42.6733 -81.1931 261° West 407 468 24,000 -300 Descending Cleveland Center
Wed 06:58:55 AM 42.6556 -81.3483 261° West 407 468 24,000  Level Cleveland Center
Wed 06:59:55 AM 42.6358 -81.5033 260° West 412 474 24,000  Level Cleveland Center
Wed 07:00:55 AM 42.6200 -81.6356 261° West 412 474 24,000 -200 Level Cleveland Center
Wed 07:01:55 AM 42.6019 -81.7875 261° West 412 474 23,600 -1,450 Descending Cleveland Center
Wed 07:02:55 AM 42.5836 -81.9367 261° West 412 474 21,100 -2,450 Descending Cleveland Center
Wed 07:03:55 AM 42.5650 -82.0800 260° West 401 461 18,700 -2,250 Descending Cleveland Center
Wed 07:04:55 AM 42.5508 -82.2178 262° West 388 447 16,600 -2,208 Descending Cleveland Center
Wed 07:05:41 AM 42.5364 -82.3386 261° West 358 412 14,800 -2,182 Descending Cleveland Center
Wed 07:06:12 AM 42.5292 -82.4061 262° West 352 405 13,800 -1,703 Descending Cleveland Center
Wed 07:06:55 AM 42.5156 -82.4789 256° West 366 421 12,700 -1,049 Descending Cleveland Center
Wed 07:07:55 AM 42.4861 -82.6019 252° West 356 410 12,000 -600 Descending Cleveland Center
Wed 07:08:55 AM 42.4444 -82.7217 245° Southwest 350 403 11,500 -500 Descending Cleveland Center
Wed 07:09:55 AM 42.4025 -82.8383 244° Southwest 350 403 11,000 -250 Descending Cleveland Center
Wed 07:10:55 AM 42.3628 -82.9522 245° Southwest 350 403 11,000  Level Cleveland Center
Wed 07:11:55 AM 42.3231 -83.0600 244° Southwest 339 390 11,000  Level Cleveland Center
Wed 07:12:55 AM 42.2942 -83.1433 245° Southwest 291 335 11,000  Level Cleveland Center
Wed 07:13:55 AM 42.2467 -83.2086 226° Southwest 265 305 11,000 -300 Level Cleveland Center
Wed 07:14:55 AM 42.1747 -83.2561 206° Southwest 253 291 10,400 -1,192 Descending Cleveland Center
Wed 07:16:21 AM 42.0900 -83.3169 208° Southwest 252 290 8,100 -1,633 Descending Cleveland Center
Wed 07:17:22 AM 42.0286 -83.3533 204° Southwest 237 273 6,400 -1,759 Descending Cleveland Center
Wed 07:18:17 AM 42.0142 -83.4283 255° West 217 250 4,700 -1,293 Descending Cleveland Center
Wed 07:19:18 AM 42.0578 -83.4442 345° North 170 196 3,900 -984 Descending Cleveland Center
Wed 07:20:19 AM 42.1000 -83.4236 20° North 153 176 2,700 -893 Descending Cleveland Center
Wed 07:21:19 AM 42.1361 -83.3972 28° Northeast 114 131 2,100 -639 Descending Cleveland Center
Wed 07:22:21 AM 42.1656 -83.3761 28° Northeast 120 138 1,400 -677 Descending Cleveland Center

Login

Don't have an account? Register now (free) for customized features, flight alerts, and more!